Decoded Metar for KFTY (ATLANTA/FULTON in GA, USA) (IATA:FTY) | Meteo·Mobile Aviation Weather
aviador You're here:

KFTY Decoded Metar

ATLANTA/FULTON in GA, USA
Report Time2018-09-21 16:53:00
UTC Time2018-09-21 17:38:20
Flight Rules vfr VFR
Wind100° at 03 kt
W.Decomp.*RWY 09: 2.9 kt HW 0.8 kt RCW
RWY 08: 2.7 kt HW 1.3 kt RCW
RWY 14: 2.5 kt HW 1.7 kt LCW
W.Rank100° ranks 19
Current wind is below 100° avg. (5.6)
Visibility9999 m
Phenomena:N/A
Clouds:Broken 037 Hf
Expected CloudBase > 3,200 ft AGL from Temp-Dew spread
Ceiling3,700 ft
Temp29°C (ISA +16)
Dew Point21°C (62% RH)
Heat Index31.3°C
QNH1022 hPa
Density Alt2,697 ft
Elevation863 ft
Report Wrong Elevation
Raw Report
METAR KFTY 211653Z 10003KT 10SM BKN037 29/21 A3017 RMK AO2 SLP206 T02940206=

Extra information for KFTY:More info

Metar Taf Metar & Taf Last 4 Metars F.Rules Stats Wind Profile Meteogram Temp Stats Airport Information Weather charts Add Link Nearby VenuesMetar ALERT Operation Metar Decoded Social comments

AIRNAV info for KFTY